createdAt,value
2022-12-20T00:01:35.245Z,101564.13
2022-12-20T00:04:05.908Z,101563.28
2022-12-20T00:06:34.857Z,101562.47
2022-12-20T00:09:03.972Z,101563.31
2022-12-20T00:11:32.741Z,101562.50
2022-12-20T00:14:00.298Z,101554.75
2022-12-20T00:16:29.211Z,101544.47
2022-12-20T00:19:00.323Z,101549.63
2022-12-20T00:21:28.872Z,101540.97
2022-12-20T00:23:56.940Z,101536.63
2022-12-20T00:26:30.604Z,101536.66
2022-12-20T00:28:59.996Z,101529.81
2022-12-20T00:31:29.753Z,101528.03
2022-12-20T00:33:58.936Z,101524.53
2022-12-20T00:36:28.530Z,101525.47
2022-12-20T00:38:58.454Z,101523.75
2022-12-20T00:41:32.019Z,101523.72
2022-12-20T00:44:00.139Z,101520.28
2022-12-20T00:46:27.864Z,101527.28
2022-12-20T00:48:56.855Z,101514.34
2022-12-20T00:51:28.571Z,101516.06
2022-12-20T00:53:56.722Z,101522.09
2022-12-20T00:56:26.014Z,101524.69
2022-12-20T00:58:54.557Z,101518.66
2022-12-20T01:01:30.704Z,101509.19
2022-12-20T01:03:59.273Z,101501.44
2022-12-20T01:06:27.816Z,101504.09
2022-12-20T01:08:56.583Z,101503.25
2022-12-20T01:11:30.292Z,101505.81
2022-12-20T01:14:00.005Z,101504.13
2022-12-20T01:16:36.735Z,101496.31
2022-12-20T01:19:06.232Z,101498.06
2022-12-20T01:21:34.619Z,101500.66
2022-12-20T01:24:02.410Z,101494.56
2022-12-20T01:26:30.496Z,101492.84
2022-12-20T01:29:00.523Z,101500.69
2022-12-20T01:31:29.919Z,101503.28
2022-12-20T01:33:58.478Z,101497.22
2022-12-20T01:36:29.342Z,101492.03
2022-12-20T01:39:02.370Z,101500.69
2022-12-20T01:41:31.578Z,101483.41
2022-12-20T01:44:02.407Z,101480.78
2022-12-20T01:46:33.523Z,101472.09
2022-12-20T01:49:04.349Z,101471.25
2022-12-20T01:51:34.933Z,101468.72
2022-12-20T01:54:08.122Z,101461.78
2022-12-20T01:56:36.958Z,101454.00
2022-12-20T01:59:04.855Z,101453.13
2022-12-20T02:01:32.706Z,101451.44
2022-12-20T02:04:00.317Z,101452.31
2022-12-20T02:06:28.009Z,101452.31
2022-12-20T02:09:00.190Z,101453.13
2022-12-20T02:11:52.584Z,101460.94
2022-12-20T02:14:30.369Z,101459.19
2022-12-20T02:17:14.368Z,101456.63
2022-12-20T02:19:56.820Z,101443.72
2022-12-20T02:22:38.780Z,101438.53
2022-12-20T02:25:24.476Z,101435.97
2022-12-20T02:28:09.883Z,101429.88
2022-12-20T02:30:45.149Z,101422.03
2022-12-20T02:33:14.489Z,101424.59
2022-12-20T02:35:42.142Z,101428.09
2022-12-20T02:38:32.430Z,101429.81
2022-12-20T02:41:21.879Z,101419.44
2022-12-20T02:44:15.420Z,101422.84
2022-12-20T02:46:44.014Z,101408.19
2022-12-20T02:49:18.641Z,101405.59
2022-12-20T02:51:49.388Z,101402.13
2022-12-20T02:54:18.022Z,101397.00
2022-12-20T02:57:00.889Z,101388.38
2022-12-20T02:59:58.411Z,101388.28
2022-12-20T03:02:27.437Z,101375.34
2022-12-20T03:04:55.536Z,101375.38
2022-12-20T03:07:23.015Z,101371.06
2022-12-20T03:09:50.659Z,101367.63
2022-12-20T03:12:18.186Z,101356.38
2022-12-20T03:14:49.519Z,101366.72
2022-12-20T03:17:17.062Z,101364.94
2022-12-20T03:19:44.658Z,101357.19
2022-12-20T03:22:12.209Z,101352.88
2022-12-20T03:24:39.682Z,101347.72
2022-12-20T03:27:07.162Z,101346.03
2022-12-20T03:29:35.928Z,101340.03
2022-12-20T03:32:03.744Z,101332.25
2022-12-20T03:34:31.444Z,101322.75
2022-12-20T03:36:59.252Z,101320.22
2022-12-20T03:39:26.810Z,101317.63
2022-12-20T03:41:54.635Z,101315.88
2022-12-20T03:44:22.525Z,101313.34
2022-12-20T03:46:50.025Z,101312.47
2022-12-20T03:49:18.684Z,101315.00
2022-12-20T03:51:46.343Z,101308.09
2022-12-20T03:54:13.884Z,101310.72
2022-12-20T03:56:41.365Z,101316.81
2022-12-20T03:59:08.919Z,101309.91
2022-12-20T04:01:38.743Z,101314.22
2022-12-20T04:04:08.291Z,101302.94
2022-12-20T04:06:36.079Z,101300.38
2022-12-20T04:09:03.727Z,101296.94
2022-12-20T04:11:31.419Z,101289.19
2022-12-20T04:13:58.863Z,101283.97
2022-12-20T04:16:28.782Z,101285.69
2022-12-20T04:18:56.845Z,101286.50
2022-12-20T04:21:29.609Z,101270.97
2022-12-20T04:23:58.337Z,101270.13
2022-12-20T04:26:25.997Z,101271.84
2022-12-20T04:28:54.220Z,101259.84
2022-12-20T04:31:24.446Z,101255.50
2022-12-20T04:33:53.254Z,101252.84
2022-12-20T04:36:21.555Z,101252.81
2022-12-20T04:38:49.666Z,101258.00
2022-12-20T04:41:23.602Z,101256.22
2022-12-20T04:43:54.426Z,101257.13
2022-12-20T04:46:22.649Z,101260.53
2022-12-20T04:48:59.378Z,101252.00
2022-12-20T04:51:28.142Z,101251.13
2022-12-20T04:53:56.382Z,101254.66
2022-12-20T04:56:29.047Z,101252.94
2022-12-20T04:58:58.226Z,101246.88
2022-12-20T05:01:26.606Z,101242.59
2022-12-20T05:03:55.087Z,101247.72
2022-12-20T05:06:22.979Z,101245.13
2022-12-20T05:08:50.807Z,101233.88
2022-12-20T05:11:18.417Z,101234.69
2022-12-20T05:13:45.971Z,101224.28
2022-12-20T05:16:13.952Z,101223.47
2022-12-20T05:18:48.491Z,101223.53
2022-12-20T05:21:35.750Z,101226.94
2022-12-20T05:24:22.148Z,101221.84
2022-12-20T05:26:50.033Z,101217.53
2022-12-20T05:29:17.967Z,101207.13
2022-12-20T05:31:46.042Z,101204.63
2022-12-20T05:34:13.649Z,101204.56
2022-12-20T05:36:41.117Z,101213.28
